Time,TemperatureF,DewpointF,PressureIn,WindDirection,WindDirectionDegrees,WindSpeedMPH,WindSpeedGustMPH,Humidity,HourlyPrecipIn,Conditions,Clouds,dailyrainin,SoftwareType,DateUTC
2016-02-12 00:12:00,19.5,12.0,30.32,North,5,0.0,1.0,74,0.00,,,0.00,weatherlink.com 1.10,2016-02-12 05:12:00,
2016-02-12 00:27:00,19.9,13.0,30.32,North,5,0.0,1.0,74,0.00,,,0.00,weatherlink.com 1.10,2016-02-12 05:27:00,
2016-02-12 00:43:00,20.0,13.0,30.32,North,5,0.0,1.0,74,0.00,,,0.00,weatherlink.com 1.10,2016-02-12 05:43:00,
2016-02-12 00:58:00,19.7,13.0,30.32,North,5,0.0,1.0,75,0.00,,,0.00,weatherlink.com 1.10,2016-02-12 05:58:00,
2016-02-12 01:13:00,19.4,13.0,30.31,North,5,1.0,1.0,76,0.00,,,0.00,weatherlink.com 1.10,2016-02-12 06:13:00,
2016-02-12 01:28:00,19.3,12.0,30.31,North,5,1.0,2.0,73,0.00,,,0.00,weatherlink.com 1.10,2016-02-12 06:28:00,
2016-02-12 01:43:00,19.0,12.0,30.30,North,5,0.0,2.0,73,0.00,,,0.00,weatherlink.com 1.10,2016-02-12 06:43:00,
2016-02-12 01:58:00,18.2,11.0,30.30,North,5,1.0,2.0,73,0.00,,,0.00,weatherlink.com 1.10,2016-02-12 06:58:00,
2016-02-12 02:13:00,18.2,11.0,30.30,North,5,0.0,2.0,74,0.00,,,0.00,weatherlink.com 1.10,2016-02-12 07:13:00,
2016-02-12 03:13:00,19.0,13.0,30.27,North,5,0.0,1.0,76,0.00,,,0.00,weatherlink.com 1.10,2016-02-12 08:13:00,
2016-02-12 03:28:00,19.3,13.0,30.27,North,5,0.0,0.0,76,0.00,,,0.00,weatherlink.com 1.10,2016-02-12 08:28:00,
2016-02-12 03:43:00,19.1,14.0,30.27,North,5,0.0,1.0,79,0.00,,,0.00,weatherlink.com 1.10,2016-02-12 08:43:00,
2016-02-12 03:58:00,18.8,14.0,30.27,North,5,0.0,0.0,80,0.00,,,0.00,weatherlink.com 1.10,2016-02-12 08:58:00,
2016-02-12 04:13:00,18.6,12.0,30.26,North,5,0.0,1.0,76,0.00,,,0.00,weatherlink.com 1.10,2016-02-12 09:13:00,
2016-02-12 04:28:00,18.6,12.0,30.25,North,5,0.0,1.0,76,0.00,,,0.00,weatherlink.com 1.10,2016-02-12 09:28:00,
2016-02-12 04:43:00,18.6,12.0,30.25,North,5,0.0,1.0,76,0.00,,,0.00,weatherlink.com 1.10,2016-02-12 09:43:00,
2016-02-12 04:58:00,18.8,12.0,30.25,North,5,0.0,1.0,76,0.00,,,0.00,weatherlink.com 1.10,2016-02-12 09:58:00,
2016-02-12 05:13:00,19.2,13.0,30.25,North,5,1.0,1.0,75,0.00,,,0.00,weatherlink.com 1.10,2016-02-12 10:13:00,
2016-02-12 05:28:00,19.8,12.0,30.25,North,5,1.0,2.0,73,0.00,,,0.00,weatherlink.com 1.10,2016-02-12 10:28:00,
2016-02-12 05:43:00,20.5,11.0,30.25,East,94,1.0,2.0,68,0.00,,,0.00,weatherlink.com 1.10,2016-02-12 10:43:00,
2016-02-12 05:58:00,20.9,11.0,30.25,East,94,0.0,2.0,66,0.00,,,0.00,weatherlink.com 1.10,2016-02-12 10:58:00,
2016-02-12 06:13:00,20.7,12.0,30.25,East,94,0.0,2.0,68,0.00,,,0.00,weatherlink.com 1.10,2016-02-12 11:13:00,
2016-02-12 06:28:00,21.2,11.0,30.24,East,93,0.0,3.0,66,0.00,,,0.00,weatherlink.com 1.10,2016-02-12 11:28:00,
2016-02-12 06:43:00,21.2,11.0,30.23,East,99,1.0,3.0,65,0.00,,,0.00,weatherlink.com 1.10,2016-02-12 11:43:00,
2016-02-12 06:58:00,21.3,12.0,30.24,East,99,1.0,2.0,66,0.00,,,0.00,weatherlink.com 1.10,2016-02-12 11:58:00,
2016-02-12 07:13:00,21.5,12.0,30.23,East,99,1.0,2.0,66,0.00,,,0.00,weatherlink.com 1.10,2016-02-12 12:13:00,
2016-02-12 07:28:00,21.5,12.0,30.23,East,99,1.0,1.0,67,0.00,,,0.00,weatherlink.com 1.10,2016-02-12 12:28:00,
2016-02-12 07:43:00,21.5,13.0,30.23,East,99,1.0,2.0,70,0.00,,,0.00,weatherlink.com 1.10,2016-02-12 12:43:00,
2016-02-12 07:58:00,21.5,14.0,30.22,SE,126,0.0,1.0,72,0.00,,,0.00,weatherlink.com 1.10,2016-02-12 12:58:00,
2016-02-12 08:28:00,22.1,13.0,30.23,WSW,250,2.0,4.0,68,0.00,,,0.00,weatherlink.com 1.10,2016-02-12 13:28:00,
2016-02-12 08:43:00,22.3,12.0,30.23,SW,223,1.0,5.0,66,0.00,,,0.00,weatherlink.com 1.10,2016-02-12 13:43:00,
2016-02-12 09:13:00,22.8,13.0,30.23,SW,231,2.0,5.0,66,0.00,,,0.00,weatherlink.com 1.10,2016-02-12 14:13:00,
2016-02-12 09:43:00,23.7,14.0,30.22,SSW,213,3.0,5.0,66,0.00,,,0.00,weatherlink.com 1.10,2016-02-12 14:43:00,
2016-02-12 09:59:00,24.0,14.0,30.22,SW,221,3.0,7.0,65,0.00,,,0.00,weatherlink.com 1.10,2016-02-12 14:59:00,
2016-02-12 10:14:00,24.7,14.0,30.21,SSW,211,4.0,5.0,65,0.00,,,0.00,weatherlink.com 1.10,2016-02-12 15:14:00,
2016-02-12 10:29:00,24.9,15.0,30.21,SW,229,3.0,6.0,67,0.00,,,0.00,weatherlink.com 1.10,2016-02-12 15:29:00,
2016-02-12 10:44:00,24.5,16.0,30.21,SSW,199,5.0,9.0,71,0.00,,,0.00,weatherlink.com 1.10,2016-02-12 15:44:00,
2016-02-12 10:59:00,24.6,18.0,30.20,SW,236,4.0,7.0,76,0.00,,,0.00,weatherlink.com 1.10,2016-02-12 15:59:00,
2016-02-12 11:14:00,25.0,19.0,30.20,WSW,239,4.0,8.0,77,0.00,,,0.00,weatherlink.com 1.10,2016-02-12 16:14:00,
2016-02-12 11:29:00,25.8,20.0,30.20,SSW,196,5.0,10.0,77,0.00,,,0.00,weatherlink.com 1.10,2016-02-12 16:29:00,
2016-02-12 11:44:00,26.2,19.0,30.19,SW,221,4.0,8.0,75,0.00,,,0.00,weatherlink.com 1.10,2016-02-12 16:44:00,
2016-02-12 11:59:00,27.1,20.0,30.18,SW,217,9.0,11.0,74,0.00,,,0.00,weatherlink.com 1.10,2016-02-12 16:59:00,
2016-02-12 12:14:00,27.5,20.0,30.18,WSW,253,4.0,8.0,72,0.00,,,0.00,weatherlink.com 1.10,2016-02-12 17:14:00,
2016-02-12 12:29:00,27.5,20.0,30.17,SW,234,4.0,9.0,72,0.00,,,0.00,weatherlink.com 1.10,2016-02-12 17:29:00,
2016-02-12 12:44:00,27.4,19.0,30.16,SSW,196,4.0,8.0,71,0.00,,,0.00,weatherlink.com 1.10,2016-02-12 17:44:00,
2016-02-12 13:14:00,27.6,19.0,30.16,SSW,210,5.0,8.0,70,0.00,,,0.00,weatherlink.com 1.10,2016-02-12 18:14:00,
2016-02-12 13:29:00,27.6,19.0,30.15,West,260,3.0,10.0,71,0.00,,,0.00,weatherlink.com 1.10,2016-02-12 18:29:00,
2016-02-12 13:44:00,27.6,19.0,30.15,SW,214,5.0,8.0,71,0.00,,,0.00,weatherlink.com 1.10,2016-02-12 18:44:00,
2016-02-12 13:59:00,28.1,19.0,30.13,SW,227,5.0,10.0,70,0.00,,,0.00,weatherlink.com 1.10,2016-02-12 18:59:00,
2016-02-12 14:14:00,28.5,20.0,30.13,WSW,240,4.0,8.0,69,0.00,,,0.00,weatherlink.com 1.10,2016-02-12 19:14:00,
2016-02-12 14:29:00,28.7,19.0,30.13,SW,228,4.0,10.0,67,0.00,,,0.00,weatherlink.com 1.10,2016-02-12 19:29:00,
2016-02-12 14:44:00,28.7,19.0,30.13,West,281,6.0,7.0,67,0.00,,,0.00,weatherlink.com 1.10,2016-02-12 19:44:00,
2016-02-12 14:59:00,28.7,19.0,30.12,SW,223,1.0,13.0,66,0.00,,,0.00,weatherlink.com 1.10,2016-02-12 19:59:00,
2016-02-12 15:14:00,29.2,19.0,30.12,SSW,213,6.0,9.0,65,0.00,,,0.00,weatherlink.com 1.10,2016-02-12 20:14:00,
2016-02-12 15:29:00,29.1,18.0,30.12,WSW,250,8.0,11.0,64,0.00,,,0.00,weatherlink.com 1.10,2016-02-12 20:29:00,
2016-02-12 15:44:00,29.4,19.0,30.12,West,259,6.0,9.0,64,0.00,,,0.00,weatherlink.com 1.10,2016-02-12 20:44:00,
2016-02-12 15:59:00,29.2,18.0,30.12,SSW,208,4.0,12.0,64,0.00,,,0.00,weatherlink.com 1.10,2016-02-12 20:59:00,
2016-02-12 16:44:00,28.6,18.0,30.14,WSW,242,3.0,15.0,66,0.00,,,0.00,weatherlink.com 1.10,2016-02-12 21:44:00,
2016-02-12 16:59:00,28.5,19.0,30.15,WSW,240,6.0,15.0,67,0.00,,,0.00,weatherlink.com 1.10,2016-02-12 21:59:00,
2016-02-12 17:29:00,28.1,19.0,30.16,SW,217,4.0,12.0,69,0.00,,,0.00,weatherlink.com 1.10,2016-02-12 22:29:00,
2016-02-12 17:44:00,28.0,19.0,30.16,West,264,9.0,10.0,70,0.00,,,0.00,weatherlink.com 1.10,2016-02-12 22:44:00,
2016-02-12 17:59:00,27.7,19.0,30.17,WSW,248,14.0,14.0,70,0.00,,,0.00,weatherlink.com 1.10,2016-02-12 22:59:00,
2016-02-12 18:14:00,27.4,19.0,30.18,SSW,207,3.0,15.0,70,0.00,,,0.00,weatherlink.com 1.10,2016-02-12 23:14:00,
2016-02-12 18:44:00,26.9,18.0,30.19,SW,215,1.0,11.0,70,0.00,,,0.00,weatherlink.com 1.10,2016-02-12 23:44:00,
2016-02-12 19:14:00,26.4,19.0,30.21,NW,323,11.0,14.0,73,0.00,,,0.00,weatherlink.com 1.10,2016-02-13 00:14:00,
2016-02-12 19:29:00,25.4,20.0,30.22,NW,307,7.0,12.0,81,0.00,,,0.00,weatherlink.com 1.10,2016-02-13 00:29:00,
2016-02-12 19:44:00,24.3,21.0,30.23,WNW,292,2.0,14.0,88,0.00,,,0.00,weatherlink.com 1.10,2016-02-13 00:44:00,
2016-02-12 19:59:00,24.1,21.0,30.24,SW,232,3.0,10.0,87,0.00,,,0.00,weatherlink.com 1.10,2016-02-13 00:59:00,
2016-02-12 20:14:00,24.2,19.0,30.24,NNW,329,8.0,12.0,81,0.00,,,0.00,weatherlink.com 1.10,2016-02-13 01:14:00,
2016-02-12 20:29:00,24.0,14.0,30.26,WNW,296,7.0,17.0,67,0.00,,,0.00,weatherlink.com 1.10,2016-02-13 01:29:00,
2016-02-12 20:45:00,23.6,15.0,30.27,NW,317,6.0,12.0,70,0.00,,,0.00,weatherlink.com 1.10,2016-02-13 01:45:00,
2016-02-12 21:00:00,23.0,15.0,30.27,West,277,1.0,14.0,70,0.00,,,0.00,weatherlink.com 1.10,2016-02-13 02:00:00,
2016-02-12 21:15:00,23.1,14.0,30.28,West,272,4.0,15.0,67,0.00,,,0.00,weatherlink.com 1.10,2016-02-13 02:15:00,
2016-02-12 21:30:00,22.8,14.0,30.28,West,259,2.0,10.0,68,0.00,,,0.00,weatherlink.com 1.10,2016-02-13 02:30:00,
2016-02-12 21:45:00,22.4,14.0,30.28,West,277,8.0,8.0,71,0.00,,,0.00,weatherlink.com 1.10,2016-02-13 02:45:00,
2016-02-12 22:00:00,22.4,15.0,30.29,WSW,244,2.0,6.0,74,0.00,,,0.00,weatherlink.com 1.10,2016-02-13 03:00:00,